BUF weather

Buffalo Niagara International Airport
Buffalo, New York, United States

Public forecast

Using degrees Fahrenheit for public forecast. Weather courtesy of forecast.io.

METAR (pilot weather report)

Retrieved 2017/12/11 03:54 UTC (37 minutes ago):

KBUF 110354Z 25012KT 9SM -SN BKN050 OVC065 M02/M06 A2987 RMK AO2 SLP126 P0000 T10221061 $

TAF (pilot weather forecast)

Forecast is more than 12 hours old.

Retrieved 2017/12/10 00:27 UTC (1 day ago):

TAF KBUF 102324Z 1100/1124 27012G20KT 2SM -SN OVC025 FM110300 26012G20KT P6SM VCSH OVC030 FM110800 31009KT P6SM BKN035 FM111700 25005KT P6SM BKN035 FM112100 18004KT P6SM VCSH OVC035